Time;durP1;ratioP1;P1;durP2;ratioP2;P2;SDS_P1;SDS_P2;PMS_P1;PMS_P2;Temp;Humidity;BMP_temperature;BMP_pressure;BME280_temperature;BME280_humidity;BME280_pressure;Samples;Min_cycle;Max_cycle;Signal;HPM_P1;HPM_P2
2020/12/05 00:01:31;;;;;;;16.98;12.43;;;2.00;99.90;;;;;;5064107;28;20329;-75
2020/12/05 00:03:57;;;;;;;15.93;12.60;;;2.00;99.90;;;;;;5064196;28;20196;-74
2020/12/05 00:06:25;;;;;;;20.00;13.00;;;2.00;99.90;;;;;;5064439;28;20213;-75
2020/12/05 00:08:53;;;;;;;23.15;14.63;;;2.00;99.90;;;;;;5064234;28;20705;-74
2020/12/05 00:11:26;;;;;;;25.33;16.45;;;2.10;99.90;;;;;;5063710;28;20204;-75
2020/12/05 00:13:54;;;;;;;19.90;15.40;;;2.10;99.90;;;;;;5064108;28;20204;-75
2020/12/05 00:16:21;;;;;;;21.13;13.98;;;2.00;99.90;;;;;;5063928;28;20212;-75
2020/12/05 00:18:53;;;;;;;21.35;14.07;;;2.00;99.90;;;;;;5063566;28;20204;-75
2020/12/05 00:21:21;;;;;;;20.17;13.55;;;2.00;99.90;;;;;;5063708;28;20211;-74
2020/12/05 00:23:51;;;;;;;21.13;14.20;;;2.00;99.90;;;;;;5062868;28;20199;-76
2020/12/05 00:26:19;;;;;;;20.20;15.45;;;2.00;99.90;;;;;;5063884;28;20228;-75
2020/12/05 00:28:49;;;;;;;20.70;14.55;;;2.10;99.90;;;;;;5063850;28;20210;-75
2020/12/05 00:31:18;;;;;;;21.95;15.38;;;2.10;99.90;;;;;;5063620;28;20214;-75
2020/12/05 00:33:45;;;;;;;20.80;14.35;;;2.10;99.90;;;;;;5063125;28;20200;-75
2020/12/05 00:36:16;;;;;;;22.58;16.63;;;2.10;99.90;;;;;;5063504;28;20268;-76
2020/12/05 00:38:44;;;;;;;18.77;14.88;;;2.10;99.90;;;;;;5063301;28;20203;-75
2020/12/05 00:41:17;;;;;;;20.58;14.57;;;2.10;99.90;;;;;;5063492;28;20207;-75
2020/12/05 00:43:44;;;;;;;24.55;16.33;;;2.20;99.90;;;;;;5063419;28;20209;-76
2020/12/05 00:46:13;;;;;;;18.85;13.80;;;2.10;99.90;;;;;;5063835;28;20259;-75
2020/12/05 00:48:41;;;;;;;20.38;14.45;;;2.20;99.90;;;;;;5063592;28;20243;-76
2020/12/05 00:51:11;;;;;;;21.70;14.43;;;2.20;99.90;;;;;;5063337;28;20213;-75
2020/12/05 00:53:38;;;;;;;18.67;13.27;;;2.10;99.90;;;;;;5065801;28;20224;-75
2020/12/05 00:56:07;;;;;;;19.40;13.57;;;2.10;99.90;;;;;;5067878;28;20196;-76
2020/12/05 00:58:36;;;;;;;18.65;13.25;;;2.20;99.90;;;;;;5067264;28;20244;-75
2020/12/05 01:01:03;;;;;;;19.33;14.30;;;2.20;99.90;;;;;;5066962;28;20733;-75
2020/12/05 01:03:31;;;;;;;20.80;13.52;;;2.20;99.90;;;;;;5066786;28;20279;-75
2020/12/05 01:05:58;;;;;;;17.85;14.00;;;2.20;99.90;;;;;;5067415;28;20660;-75
2020/12/05 01:08:26;;;;;;;14.85;11.65;;;2.30;99.90;;;;;;5069627;28;20255;-75
2020/12/05 01:10:53;;;;;;;16.02;12.35;;;2.30;99.90;;;;;;5068761;28;20262;-75
2020/12/05 01:13:20;;;;;;;19.27;12.70;;;2.20;99.90;;;;;;5066834;28;20588;-75
2020/12/05 01:15:48;;;;;;;18.77;12.55;;;2.10;99.90;;;;;;5067289;28;20204;-75
2020/12/05 01:18:16;;;;;;;16.70;12.50;;;2.00;99.90;;;;;;5067067;28;20236;-75
2020/12/05 01:20:43;;;;;;;19.38;13.20;;;2.00;99.90;;;;;;5067072;28;20204;-75
2020/12/05 01:23:10;;;;;;;17.15;13.10;;;2.00;99.90;;;;;;5066504;28;20234;-75
2020/12/05 01:25:36;;;;;;;18.52;13.43;;;2.10;99.90;;;;;;5067421;28;20695;-75
2020/12/05 01:28:03;;;;;;;19.27;13.55;;;2.10;99.90;;;;;;5070575;28;20203;-75
2020/12/05 01:30:29;;;;;;;14.93;11.60;;;2.10;99.90;;;;;;5117238;22;20252;-74
2020/12/05 01:32:56;;;;;;;19.92;13.32;;;2.10;99.90;;;;;;5050938;28;20217;-76
2020/12/05 01:35:22;;;;;;;18.60;12.27;;;2.10;99.90;;;;;;5051618;28;20688;-73
2020/12/05 01:37:48;;;;;;;19.55;13.57;;;2.10;99.90;;;;;;5052080;28;20209;-74
2020/12/05 01:40:15;;;;;;;17.92;13.95;;;2.20;99.90;;;;;;5065156;28;20224;-73
2020/12/05 01:42:43;;;;;;;16.15;12.27;;;2.20;99.90;;;;;;5071483;28;20864;-73
2020/12/05 01:45:09;;;;;;;17.58;12.93;;;2.20;99.90;;;;;;5065984;28;20201;-73
2020/12/05 01:47:36;;;;;;;18.70;13.90;;;2.30;99.90;;;;;;5059955;28;20217;-74
2020/12/05 01:50:03;;;;;;;17.75;12.95;;;2.40;99.90;;;;;;5062015;28;20189;-73
2020/12/05 01:52:30;;;;;;;17.25;12.52;;;2.40;99.90;;;;;;5061044;28;20213;-73
2020/12/05 01:54:56;;;;;;;18.02;12.68;;;2.40;99.90;;;;;;5061046;28;20205;-73
2020/12/05 01:57:22;;;;;;;15.55;11.30;;;2.40;99.90;;;;;;5061883;28;20196;-73
2020/12/05 01:59:49;;;;;;;18.40;14.00;;;2.40;99.90;;;;;;5069565;28;20695;-73
2020/12/05 02:02:15;;;;;;;18.33;13.10;;;2.40;99.90;;;;;;5069303;28;20707;-73
2020/12/05 02:04:51;;;;;;;15.98;12.77;;;2.30;99.90;;;;;;5071101;28;20432;-74
2020/12/05 02:07:29;;;;;;;16.42;12.93;;;2.30;99.90;;;;;;5071538;28;20224;-74
2020/12/05 02:09:57;;;;;;;16.10;12.65;;;2.20;99.90;;;;;;5071424;28;20204;-74
2020/12/05 02:12:30;;;;;;;15.43;12.05;;;2.20;99.90;;;;;;5070774;28;20861;-74
2020/12/05 02:15:04;;;;;;;15.05;11.57;;;2.20;99.90;;;;;;5071298;28;20212;-73
2020/12/05 02:17:34;;;;;;;15.20;10.98;;;2.20;99.90;;;;;;5071130;28;20565;-73
2020/12/05 02:20:01;;;;;;;16.02;11.95;;;2.20;99.90;;;;;;5071259;28;20205;-73
2020/12/05 02:22:35;;;;;;;15.63;11.35;;;2.20;99.90;;;;;;5070390;28;20224;-73
2020/12/05 02:25:03;;;;;;;16.52;11.93;;;2.10;99.90;;;;;;5071316;28;20205;-73
2020/12/05 02:27:30;;;;;;;14.07;12.10;;;2.10;99.90;;;;;;5066111;28;20231;-73
2020/12/05 02:29:57;;;;;;;15.63;12.23;;;2.00;99.90;;;;;;5079088;28;20212;-73
2020/12/05 02:32:23;;;;;;;14.38;11.40;;;2.00;99.90;;;;;;5090683;28;20216;-74
2020/12/05 02:34:49;;;;;;;14.32;10.77;;;2.00;99.90;;;;;;5091818;28;20208;-73
2020/12/05 02:37:21;;;;;;;14.07;10.68;;;2.00;99.90;;;;;;5091497;28;20200;-73
2020/12/05 02:39:49;;;;;;;13.55;10.43;;;2.00;99.90;;;;;;5091193;28;20208;-73
2020/12/05 02:42:16;;;;;;;13.20;11.23;;;2.00;99.90;;;;;;5090582;28;20228;-73
2020/12/05 02:44:47;;;;;;;12.65;10.07;;;2.00;99.90;;;;;;5090712;28;20211;-73
2020/12/05 02:47:13;;;;;;;14.18;11.18;;;2.00;99.90;;;;;;5090808;28;20215;-73
2020/12/05 02:49:40;;;;;;;14.20;10.38;;;1.90;99.90;;;;;;5090896;28;20230;-74
2020/12/05 02:52:06;;;;;;;13.48;10.05;;;1.90;99.90;;;;;;5090282;28;20216;-73
2020/12/05 02:54:32;;;;;;;14.85;10.63;;;1.90;99.90;;;;;;5090946;28;20196;-74
2020/12/05 02:56:59;;;;;;;12.60;11.00;;;1.90;99.90;;;;;;5090785;28;20196;-73
2020/12/05 02:59:26;;;;;;;16.35;11.23;;;1.80;99.90;;;;;;5090747;28;20199;-74
2020/12/05 03:01:53;;;;;;;13.32;10.93;;;1.80;99.90;;;;;;5090204;28;20219;-75
2020/12/05 03:04:19;;;;;;;14.15;11.38;;;1.70;99.90;;;;;;5090681;28;20200;-75
2020/12/05 03:06:45;;;;;;;13.88;10.30;;;1.70;99.90;;;;;;5090339;28;20242;-75
2020/12/05 03:09:11;;;;;;;15.55;11.30;;;1.70;99.90;;;;;;5090692;28;20199;-76
2020/12/05 03:11:38;;;;;;;13.95;11.13;;;1.70;99.90;;;;;;5090405;28;20220;-76
2020/12/05 03:14:04;;;;;;;14.00;9.95;;;1.60;99.90;;;;;;5090119;28;20204;-76
2020/12/05 03:16:31;;;;;;;12.68;9.55;;;1.60;99.90;;;;;;5089710;28;20206;-75
2020/12/05 03:18:57;;;;;;;13.65;11.07;;;1.60;99.90;;;;;;5090335;28;20204;-74
2020/12/05 03:21:23;;;;;;;12.38;9.98;;;1.60;99.90;;;;;;5090065;28;20199;-75
2020/12/05 03:23:49;;;;;;;10.40;9.00;;;1.50;99.90;;;;;;5089880;28;20203;-75
2020/12/05 03:26:16;;;;;;;12.85;10.15;;;1.50;99.90;;;;;;5090175;28;20686;-75
2020/12/05 03:28:42;;;;;;;12.60;9.82;;;1.60;99.90;;;;;;5090249;28;20195;-76
2020/12/05 03:31:14;;;;;;;10.98;9.77;;;1.60;99.90;;;;;;5090066;28;20269;-75
2020/12/05 03:33:42;;;;;;;11.73;9.73;;;1.70;99.90;;;;;;5089491;28;20199;-75
2020/12/05 03:36:08;;;;;;;10.65;9.55;;;1.70;99.90;;;;;;5090089;28;20689;-75
2020/12/05 03:38:35;;;;;;;11.82;9.52;;;1.70;99.90;;;;;;5089938;28;20210;-74
2020/12/05 03:41:01;;;;;;;11.23;9.52;;;1.60;99.90;;;;;;5089805;28;20199;-73
2020/12/05 03:43:27;;;;;;;11.95;9.75;;;1.60;99.90;;;;;;5089226;28;20267;-73
2020/12/05 03:45:53;;;;;;;12.70;10.32;;;1.50;99.90;;;;;;5090135;28;20204;-73
2020/12/05 03:48:19;;;;;;;12.10;9.18;;;1.40;99.90;;;;;;5089861;28;20576;-74
2020/12/05 03:50:46;;;;;;;12.30;8.88;;;1.40;99.90;;;;;;5089716;28;20606;-73
2020/12/05 03:53:12;;;;;;;11.35;8.95;;;1.50;99.90;;;;;;5089186;28;20231;-74
2020/12/05 03:55:39;;;;;;;11.70;8.68;;;1.50;99.90;;;;;;5089938;28;20662;-74
2020/12/05 03:58:05;;;;;;;10.02;8.05;;;1.40;99.90;;;;;;5089693;28;20203;-73
2020/12/05 04:00:31;;;;;;;9.50;8.50;;;1.40;99.90;;;;;;5089515;28;20199;-75
2020/12/05 04:02:57;;;;;;;9.63;8.65;;;1.40;99.90;;;;;;5089545;28;20227;-74
2020/12/05 04:05:23;;;;;;;10.07;8.00;;;1.50;99.90;;;;;;5089835;28;20203;-75
2020/12/05 04:07:50;;;;;;;11.13;8.23;;;1.50;99.90;;;;;;5089465;28;20219;-75
2020/12/05 04:10:16;;;;;;;8.10;7.30;;;1.50;99.90;;;;;;5089411;28;20227;-76
2020/12/05 04:12:43;;;;;;;11.05;8.80;;;1.50;99.90;;;;;;5088565;28;20230;-76
2020/12/05 04:15:09;;;;;;;11.50;8.98;;;1.50;99.90;;;;;;5089399;28;20690;-76
2020/12/05 04:17:35;;;;;;;11.27;8.70;;;1.40;99.90;;;;;;5089365;28;20199;-76
2020/12/05 04:20:01;;;;;;;9.35;8.27;;;1.40;99.90;;;;;;5089357;28;20397;-76
2020/12/05 04:22:27;;;;;;;9.07;7.00;;;1.40;99.90;;;;;;5088527;28;20223;-76
2020/12/05 04:24:54;;;;;;;10.40;8.52;;;1.40;99.90;;;;;;5089353;28;20199;-76
2020/12/05 04:27:20;;;;;;;7.68;6.88;;;1.50;99.90;;;;;;5089228;28;20591;-76
2020/12/05 04:29:47;;;;;;;9.30;8.02;;;1.50;99.90;;;;;;5089315;28;20220;-76
2020/12/05 04:32:13;;;;;;;13.30;8.60;;;1.50;99.90;;;;;;5089053;28;20348;-77
2020/12/05 04:34:39;;;;;;;9.73;8.70;;;1.50;99.90;;;;;;5089774;28;20214;-76
2020/12/05 04:37:06;;;;;;;7.90;7.10;;;1.60;99.90;;;;;;5089902;28;20275;-76
2020/12/05 04:39:32;;;;;;;9.45;7.82;;;1.50;99.90;;;;;;5089660;28;20199;-74
2020/12/05 04:41:59;;;;;;;9.32;8.32;;;1.50;99.90;;;;;;5088437;28;20215;-74
2020/12/05 04:44:25;;;;;;;9.20;7.78;;;1.50;99.90;;;;;;5089142;28;20693;-76
2020/12/05 04:46:53;;;;;;;9.25;8.05;;;1.50;99.90;;;;;;5088824;28;20219;-76
2020/12/05 04:49:20;;;;;;;10.48;8.60;;;1.40;99.90;;;;;;5089102;28;20662;-76
2020/12/05 04:51:52;;;;;;;9.32;8.15;;;1.50;99.90;;;;;;5088605;28;20223;-75
2020/12/05 04:54:25;;;;;;;9.32;8.30;;;1.50;99.90;;;;;;5089142;28;20227;-76
2020/12/05 04:56:54;;;;;;;7.97;6.97;;;1.50;99.90;;;;;;5089231;28;20200;-76
2020/12/05 04:59:21;;;;;;;9.38;7.28;;;1.40;99.90;;;;;;5089380;28;20449;-74
2020/12/05 05:01:50;;;;;;;12.80;8.50;;;1.40;99.90;;;;;;5088468;28;20223;-75
2020/12/05 05:04:17;;;;;;;9.52;7.50;;;1.40;99.90;;;;;;5088937;28;20195;-75
2020/12/05 05:06:43;;;;;;;10.05;8.43;;;1.40;99.90;;;;;;5088881;28;20248;-76
2020/12/05 05:09:11;;;;;;;8.90;7.72;;;1.40;99.90;;;;;;5088915;28;20204;-76
2020/12/05 05:11:39;;;;;;;10.57;7.30;;;1.40;99.90;;;;;;5088668;28;20256;-76
2020/12/05 05:14:13;;;;;;;12.13;8.65;;;1.40;99.90;;;;;;5088457;28;20865;-76
2020/12/05 05:16:41;;;;;;;8.30;7.35;;;1.40;99.90;;;;;;5088953;28;20616;-76
2020/12/05 05:19:19;;;;;;;11.05;7.70;;;1.40;99.90;;;;;;5088999;28;20208;-76
2020/12/05 05:21:46;;;;;;;9.57;8.18;;;1.40;99.90;;;;;;5088636;28;20220;-76
2020/12/05 05:24:14;;;;;;;8.80;7.28;;;1.40;99.90;;;;;;5088924;28;20207;-76
2020/12/05 05:26:41;;;;;;;9.75;7.20;;;1.40;99.90;;;;;;5088873;28;20635;-76
2020/12/05 05:29:23;;;;;;;12.20;7.32;;;1.40;99.90;;;;;;5088614;28;20200;-76
2020/12/05 05:31:53;;;;;;;8.05;5.97;;;1.40;99.90;;;;;;5088128;28;20698;-76
2020/12/05 05:34:21;;;;;;;7.50;6.70;;;1.40;99.90;;;;;;5088984;28;20204;-76
2020/12/05 05:36:48;;;;;;;8.65;7.13;;;1.40;99.90;;;;;;5089097;28;20203;-76
2020/12/05 05:39:15;;;;;;;7.72;6.60;;;1.40;99.90;;;;;;5091350;28;20199;-76
2020/12/05 05:41:46;;;;;;;7.85;7.05;;;1.40;99.90;;;;;;5092469;28;20666;-76
2020/12/05 05:44:14;;;;;;;8.05;7.25;;;1.40;99.90;;;;;;5092444;28;20211;-76
2020/12/05 05:46:42;;;;;;;7.28;6.00;;;1.40;99.90;;;;;;5092394;28;20219;-76
2020/12/05 05:49:11;;;;;;;6.60;5.85;;;1.50;99.90;;;;;;5092787;28;20204;-76
2020/12/05 05:51:43;;;;;;;7.53;5.85;;;1.50;99.90;;;;;;5092202;28;20223;-76
2020/12/05 05:54:22;;;;;;;6.80;5.75;;;1.50;99.90;;;;;;5092517;28;20208;-76
2020/12/05 05:57:13;;;;;;;6.80;5.63;;;1.50;99.90;;;;;;5092329;28;20249;-76
2020/12/05 05:59:41;;;;;;;6.57;6.00;;;1.40;99.90;;;;;;5092365;28;20600;-76
2020/12/05 06:02:09;;;;;;;7.05;6.25;;;1.40;99.90;;;;;;5093226;28;20238;-75
2020/12/05 06:04:38;;;;;;;9.05;6.15;;;1.40;99.90;;;;;;5091692;28;20689;-75
2020/12/05 06:07:07;;;;;;;5.45;4.95;;;1.50;99.90;;;;;;5091805;28;20227;-75
2020/12/05 06:09:44;;;;;;;7.85;5.20;;;1.40;99.90;;;;;;5091571;28;20678;-75
2020/12/05 06:12:12;;;;;;;6.50;5.00;;;1.40;99.90;;;;;;5092509;28;20227;-73
2020/12/05 06:14:41;;;;;;;5.82;4.88;;;1.40;99.90;;;;;;5091831;28;20294;-75
2020/12/05 06:17:08;;;;;;;5.65;4.85;;;1.40;99.90;;;;;;5091682;28;20200;-73
2020/12/05 06:19:35;;;;;;;6.47;4.97;;;1.40;99.90;;;;;;5091732;28;20202;-74
2020/12/05 06:22:01;;;;;;;6.90;4.40;;;1.40;99.90;;;;;;5091081;28;20231;-75
2020/12/05 06:24:47;;;;;;;6.60;4.80;;;1.40;99.90;;;;;;5091732;28;20204;-76
2020/12/05 06:27:15;;;;;;;5.75;4.55;;;1.40;99.90;;;;;;5091221;28;20228;-75
2020/12/05 06:29:41;;;;;;;4.75;4.35;;;1.40;99.90;;;;;;5091335;28;20690;-76
2020/12/05 06:32:08;;;;;;;3.97;3.67;;;1.40;99.90;;;;;;5081204;28;20223;-75
2020/12/05 06:34:39;;;;;;;4.65;4.18;;;1.40;99.90;;;;;;5070441;28;20205;-75
2020/12/05 06:37:05;;;;;;;7.40;4.70;;;1.50;99.90;;;;;;5071216;28;20196;-73
2020/12/05 06:39:32;;;;;;;4.82;3.97;;;1.50;99.90;;;;;;5075920;28;20659;-75
2020/12/05 06:41:58;;;;;;;4.85;4.35;;;1.60;99.90;;;;;;5079544;28;20224;-76
2020/12/05 06:44:34;;;;;;;4.57;4.18;;;1.60;99.90;;;;;;5081483;28;20198;-76
2020/12/05 06:47:02;;;;;;;4.63;4.22;;;1.60;99.90;;;;;;5081675;28;20211;-76
2020/12/05 06:49:50;;;;;;;4.78;4.30;;;1.60;99.90;;;;;;5079454;28;20204;-76
2020/12/05 06:52:49;;;;;;;4.20;3.80;;;1.50;99.90;;;;;;5081698;28;20230;-77
2020/12/05 06:55:28;;;;;;;3.60;3.30;;;1.50;99.90;;;;;;5008848;28;20198;-76
2020/12/05 06:58:01;;;;;;;4.55;4.15;;;1.50;99.90;;;;;;5007761;28;20191;-77
2020/12/05 07:00:32;;;;;;;3.47;3.17;;;1.50;99.90;;;;;;5048074;28;20201;-76
2020/12/05 07:03:00;;;;;;;4.85;4.20;;;1.50;99.90;;;;;;5079673;28;20235;-76
2020/12/05 07:05:34;;;;;;;4.20;3.80;;;1.50;99.90;;;;;;5081912;28;20192;-76
2020/12/05 07:08:02;;;;;;;4.32;3.90;;;1.50;99.90;;;;;;5070840;28;20704;-77
2020/12/05 07:10:54;;;;;;;4.00;3.60;;;1.40;99.90;;;;;;5071194;28;20639;-75
2020/12/05 07:13:22;;;;;;;3.97;3.58;;;1.40;99.90;;;;;;5070699;28;20216;-76
2020/12/05 07:15:48;;;;;;;4.13;3.72;;;1.40;99.90;;;;;;5071050;28;20216;-75
2020/12/05 07:18:20;;;;;;;4.60;3.63;;;1.40;99.90;;;;;;5070347;28;20575;-76
2020/12/05 07:20:47;;;;;;;4.90;3.80;;;1.40;99.90;;;;;;5070352;28;20208;-76
2020/12/05 07:23:13;;;;;;;4.55;3.65;;;1.30;99.90;;;;;;5069400;28;20245;-76
2020/12/05 07:25:39;;;;;;;3.45;3.08;;;1.30;99.90;;;;;;5069948;28;20282;-76
2020/12/05 07:28:05;;;;;;;3.63;3.33;;;1.30;99.90;;;;;;5070104;28;20216;-76
2020/12/05 07:30:32;;;;;;;3.67;3.38;;;1.30;99.90;;;;;;5119465;22;20592;-78
2020/12/05 07:32:58;;;;;;;4.90;4.00;;;1.30;99.90;;;;;;5045825;28;20216;-76
2020/12/05 07:35:24;;;;;;;3.90;3.50;;;1.40;99.90;;;;;;5051131;28;20708;-77
2020/12/05 07:37:51;;;;;;;4.82;4.15;;;1.30;99.90;;;;;;5034697;28;20194;-76
2020/12/05 07:40:27;;;;;;;4.65;3.72;;;1.30;99.90;;;;;;5032561;28;20198;-77
2020/12/05 07:42:53;;;;;;;4.30;3.75;;;1.30;99.90;;;;;;5031930;28;20248;-77
2020/12/05 07:45:20;;;;;;;4.68;4.03;;;1.20;99.90;;;;;;5032384;28;20209;-77
2020/12/05 07:47:46;;;;;;;4.82;4.32;;;1.30;99.90;;;;;;5032532;28;20228;-77
2020/12/05 07:50:12;;;;;;;4.65;4.25;;;1.30;99.90;;;;;;5031762;28;20673;-77
2020/12/05 07:52:39;;;;;;;5.15;4.70;;;1.20;99.90;;;;;;5031551;28;20232;-77
2020/12/05 07:55:07;;;;;;;4.90;4.35;;;1.20;99.90;;;;;;5031913;28;20202;-76
2020/12/05 07:57:35;;;;;;;4.32;3.92;;;1.20;99.90;;;;;;5030235;28;20566;-76
2020/12/05 08:00:05;;;;;;;4.43;4.03;;;1.30;99.90;;;;;;5029824;28;20596;-76
2020/12/05 08:02:46;;;;;;;3.95;3.60;;;1.30;99.90;;;;;;5029053;28;20222;-77
2020/12/05 08:05:22;;;;;;;5.78;4.03;;;1.30;99.90;;;;;;5031966;28;20626;-76
2020/12/05 08:07:58;;;;;;;4.82;4.05;;;1.30;99.90;;;;;;5049567;28;20220;-74
2020/12/05 08:10:29;;;;;;;5.15;4.65;;;1.30;99.90;;;;;;5051656;28;20204;-74
2020/12/05 08:13:26;;;;;;;4.65;4.25;;;1.40;99.90;;;;;;5050476;28;20730;-75
2020/12/05 08:16:03;;;;;;;5.22;4.72;;;1.40;99.90;;;;;;5051012;28;20233;-74
2020/12/05 08:18:30;;;;;;;5.10;4.60;;;1.40;99.90;;;;;;5050844;28;20821;-75
2020/12/05 08:20:56;;;;;;;6.22;5.50;;;1.50;99.90;;;;;;5050619;28;20193;-75
2020/12/05 08:23:25;;;;;;;5.53;4.30;;;1.50;99.90;;;;;;5050273;28;20225;-75
2020/12/05 08:26:01;;;;;;;6.53;3.90;;;1.60;99.90;;;;;;5050828;28;20676;-75
2020/12/05 08:28:30;;;;;;;4.15;3.63;;;1.60;99.90;;;;;;5051231;28;20605;-74
2020/12/05 08:31:02;;;;;;;3.95;3.55;;;1.70;99.90;;;;;;5050173;28;20217;-75
2020/12/05 08:33:28;;;;;;;5.93;4.50;;;1.70;99.90;;;;;;5051374;28;20221;-75
2020/12/05 08:35:54;;;;;;;4.85;3.60;;;1.70;99.90;;;;;;5050074;28;20223;-75
2020/12/05 08:38:25;;;;;;;4.45;3.80;;;1.80;99.90;;;;;;5050172;28;20193;-75
2020/12/05 08:41:03;;;;;;;3.92;3.15;;;1.80;99.90;;;;;;5049795;28;20201;-76
2020/12/05 08:43:29;;;;;;;3.15;2.63;;;1.90;99.90;;;;;;5048288;28;20228;-75
2020/12/05 08:45:55;;;;;;;3.20;2.90;;;1.90;99.90;;;;;;5050017;28;20205;-77
2020/12/05 08:48:22;;;;;;;3.95;3.13;;;2.00;99.90;;;;;;5050470;28;20221;-77
2020/12/05 08:50:48;;;;;;;3.13;2.55;;;2.10;99.90;;;;;;5051092;28;20208;-76
2020/12/05 08:53:16;;;;;;;2.17;1.98;;;2.20;99.90;;;;;;5050227;28;20316;-75
2020/12/05 08:55:47;;;;;;;2.40;2.10;;;2.20;99.90;;;;;;5050010;28;20209;-75
2020/12/05 08:58:14;;;;;;;2.08;1.92;;;2.30;99.90;;;;;;5049442;28;20258;-75
2020/12/05 09:00:41;;;;;;;3.75;2.40;;;2.40;99.90;;;;;;5049537;28;20209;-74
2020/12/05 09:03:19;;;;;;;2.25;1.88;;;2.40;99.90;;;;;;5048739;28;20607;-74
2020/12/05 09:05:46;;;;;;;2.13;1.90;;;2.50;99.90;;;;;;5049250;28;20201;-75
2020/12/05 09:08:18;;;;;;;1.65;1.45;;;2.50;99.90;;;;;;5050273;28;20227;-75
2020/12/05 09:10:44;;;;;;;2.20;2.00;;;2.60;99.90;;;;;;5050774;28;20216;-75
2020/12/05 09:13:11;;;;;;;2.22;1.95;;;2.60;99.90;;;;;;5050414;28;20233;-74
2020/12/05 09:15:50;;;;;;;2.55;2.35;;;2.70;99.90;;;;;;5054117;28;20687;-75
2020/12/05 09:18:17;;;;;;;3.20;2.28;;;2.70;99.90;;;;;;5053771;28;20193;-75
2020/12/05 09:20:43;;;;;;;8.32;5.68;;;2.70;99.90;;;;;;5053825;28;20213;-75
2020/12/05 09:23:09;;;;;;;7.05;5.25;;;2.70;99.90;;;;;;5054045;28;20320;-74
2020/12/05 09:25:37;;;;;;;7.95;6.22;;;2.60;99.90;;;;;;5054802;28;20507;-74
2020/12/05 09:28:08;;;;;;;5.80;5.00;;;2.60;99.90;;;;;;5034320;28;20292;-73
2020/12/05 09:30:35;;;;;;;7.75;5.32;;;2.70;99.90;;;;;;5033448;28;20216;-75
2020/12/05 09:33:09;;;;;;;8.18;5.72;;;2.80;99.90;;;;;;5032538;28;20233;-75
2020/12/05 09:35:36;;;;;;;6.70;4.35;;;2.90;99.90;;;;;;5033048;28;20292;-76
2020/12/05 09:38:02;;;;;;;7.03;4.72;;;3.00;99.90;;;;;;5040128;28;20255;-76
2020/12/05 09:40:30;;;;;;;6.28;5.05;;;3.10;99.90;;;;;;5050606;28;20790;-76
2020/12/05 09:42:57;;;;;;;8.02;4.68;;;3.10;99.90;;;;;;5051856;28;20229;-77
2020/12/05 09:45:23;;;;;;;5.68;4.28;;;3.00;99.90;;;;;;5051951;28;20205;-76
2020/12/05 09:47:49;;;;;;;4.97;4.47;;;3.00;99.90;;;;;;5052472;28;20244;-77
2020/12/05 09:50:16;;;;;;;5.18;4.30;;;3.00;99.90;;;;;;5052658;28;20201;-77
2020/12/05 09:52:43;;;;;;;5.30;4.78;;;3.00;99.90;;;;;;5051796;28;20228;-77
2020/12/05 09:55:09;;;;;;;5.07;4.45;;;3.00;99.90;;;;;;5051844;28;20224;-77
2020/12/05 09:57:36;;;;;;;5.80;4.82;;;3.00;99.90;;;;;;5051441;28;20197;-77
2020/12/05 10:00:04;;;;;;;5.13;4.60;;;3.00;99.90;;;;;;5052456;28;20201;-76
2020/12/05 10:02:30;;;;;;;7.10;4.95;;;3.00;99.90;;;;;;5051692;28;20217;-76
2020/12/05 10:04:57;;;;;;;6.93;5.35;;;3.00;99.90;;;;;;5052589;28;20205;-76
2020/12/05 10:07:24;;;;;;;5.43;4.57;;;3.00;99.90;;;;;;5051873;28;20221;-77
2020/12/05 10:09:51;;;;;;;6.25;5.65;;;3.00;99.90;;;;;;5049831;28;20201;-76
2020/12/05 10:12:17;;;;;;;10.73;6.15;;;2.90;99.90;;;;;;5049983;28;20759;-76
2020/12/05 10:14:44;;;;;;;7.53;5.75;;;2.90;99.90;;;;;;5050535;28;20370;-76
2020/12/05 10:17:11;;;;;;;7.55;6.03;;;2.90;99.90;;;;;;5049322;28;20255;-77
2020/12/05 10:19:38;;;;;;;8.23;6.70;;;2.90;99.90;;;;;;5050145;28;20212;-76
2020/12/05 10:22:05;;;;;;;7.15;6.45;;;2.90;99.90;;;;;;5049340;28;20229;-77
2020/12/05 10:24:33;;;;;;;9.48;6.70;;;2.90;99.90;;;;;;5049090;28;20208;-77
2020/12/05 10:27:00;;;;;;;8.68;6.78;;;2.90;99.90;;;;;;5049814;28;20197;-77
2020/12/05 10:29:26;;;;;;;10.07;7.25;;;2.90;99.90;;;;;;5049527;28;20205;-77
2020/12/05 10:31:54;;;;;;;8.63;7.00;;;2.90;99.90;;;;;;5051443;28;20256;-76
2020/12/05 10:34:22;;;;;;;7.70;6.85;;;2.90;99.90;;;;;;5053161;28;20228;-76
2020/12/05 10:36:49;;;;;;;11.93;7.88;;;2.80;99.90;;;;;;5050652;28;20200;-76
2020/12/05 10:39:16;;;;;;;10.05;8.40;;;2.80;99.90;;;;;;5049010;28;20761;-77
2020/12/05 10:41:44;;;;;;;12.13;9.38;;;2.80;99.90;;;;;;5046402;28;20930;-77
2020/12/05 10:44:12;;;;;;;10.25;7.97;;;2.80;99.90;;;;;;5044457;28;20763;-74
2020/12/05 10:46:42;;;;;;;13.10;8.35;;;2.80;99.90;;;;;;5044412;28;20287;-74
2020/12/05 10:49:09;;;;;;;11.75;8.68;;;2.80;99.90;;;;;;5044623;28;20341;-74
2020/12/05 10:51:36;;;;;;;13.23;9.63;;;2.80;99.90;;;;;;5034025;28;20202;-77
2020/12/05 10:54:02;;;;;;;10.43;9.32;;;2.70;99.90;;;;;;5035842;28;20193;-74
2020/12/05 10:56:29;;;;;;;11.55;9.07;;;2.70;99.90;;;;;;5044319;28;20298;-75
2020/12/05 10:58:56;;;;;;;15.00;12.32;;;2.60;99.90;;;;;;5047603;28;20189;-74
2020/12/05 11:01:32;;;;;;;16.45;12.70;;;2.50;99.90;;;;;;5046095;28;20402;-75
2020/12/05 11:04:01;;;;;;;20.08;16.10;;;2.50;99.90;;;;;;5045867;28;20235;-76
2020/12/05 11:06:28;;;;;;;17.70;15.57;;;2.50;99.90;;;;;;5046202;28;20635;-76
2020/12/05 11:08:55;;;;;;;17.65;13.93;;;2.50;99.90;;;;;;5047743;28;20308;-73
2020/12/05 11:11:22;;;;;;;12.57;10.77;;;2.60;99.90;;;;;;5047431;28;20209;-73
2020/12/05 11:13:49;;;;;;;18.08;10.75;;;2.60;99.90;;;;;;5046873;28;20205;-73
2020/12/05 11:16:21;;;;;;;12.05;10.30;;;2.70;99.90;;;;;;5047823;28;20240;-72
2020/12/05 11:18:49;;;;;;;13.20;10.50;;;2.70;99.90;;;;;;5045814;28;20201;-71
2020/12/05 11:21:15;;;;;;;14.65;11.73;;;2.70;99.90;;;;;;5044924;28;20220;-74
2020/12/05 11:23:42;;;;;;;14.20;10.30;;;2.80;99.90;;;;;;5044646;28;20316;-72
2020/12/05 11:26:09;;;;;;;12.90;10.48;;;2.90;99.90;;;;;;5046132;28;20236;-71
2020/12/05 11:28:36;;;;;;;12.27;9.15;;;3.00;99.90;;;;;;5046002;28;20814;-74
2020/12/05 11:31:03;;;;;;;11.27;9.15;;;3.00;99.90;;;;;;5044959;28;20217;-74
2020/12/05 11:33:31;;;;;;;12.48;9.70;;;3.00;99.90;;;;;;5045374;28;20286;-75
2020/12/05 11:35:57;;;;;;;10.90;9.20;;;3.10;99.90;;;;;;5041090;28;20213;-74
2020/12/05 11:38:24;;;;;;;10.07;9.07;;;3.10;99.90;;;;;;5043716;28;20225;-75
2020/12/05 11:40:52;;;;;;;9.85;8.00;;;3.10;99.90;;;;;;5043840;28;20209;-73
2020/12/05 11:43:18;;;;;;;10.75;8.80;;;3.10;99.90;;;;;;5042439;28;20723;-74
2020/12/05 11:45:49;;;;;;;13.88;9.63;;;3.10;99.90;;;;;;5041812;28;20241;-73
2020/12/05 11:48:15;;;;;;;11.63;8.30;;;3.10;99.90;;;;;;5023449;28;20213;-75
2020/12/05 11:50:43;;;;;;;9.85;8.30;;;3.20;99.90;;;;;;5024170;28;20241;-75
2020/12/05 11:53:09;;;;;;;10.27;7.53;;;3.20;99.90;;;;;;5023035;28;20232;-74
2020/12/05 11:55:36;;;;;;;9.85;7.93;;;3.20;99.90;;;;;;5029472;28;20200;-75
2020/12/05 11:58:03;;;;;;;9.38;8.48;;;3.20;99.90;;;;;;5043385;28;20228;-74
2020/12/05 12:00:30;;;;;;;16.48;9.98;;;3.20;99.90;;;;;;5042740;28;20262;-75
2020/12/05 12:02:57;;;;;;;12.52;9.73;;;3.10;99.90;;;;;;5043561;28;20248;-75
2020/12/05 12:05:23;;;;;;;12.95;9.43;;;3.10;99.90;;;;;;5044679;28;20259;-72
2020/12/05 12:07:51;;;;;;;12.68;9.00;;;3.10;99.90;;;;;;5043371;28;20216;-75
2020/12/05 12:10:19;;;;;;;10.40;9.20;;;3.10;99.90;;;;;;5039164;28;20284;-73
2020/12/05 12:12:45;;;;;;;9.20;8.30;;;3.20;99.90;;;;;;5040634;28;20266;-73
2020/12/05 12:15:14;;;;;;;17.42;9.07;;;3.20;99.90;;;;;;5045507;28;20201;-73
2020/12/05 12:17:41;;;;;;;14.00;9.00;;;3.30;99.90;;;;;;5036386;28;20276;-73
2020/12/05 12:20:07;;;;;;;11.68;9.50;;;3.30;99.90;;;;;;5037456;28;20290;-74
2020/12/05 12:22:34;;;;;;;9.65;8.55;;;3.30;99.90;;;;;;5034935;28;20217;-73
2020/12/05 12:25:01;;;;;;;10.60;8.20;;;3.20;99.90;;;;;;5036450;28;20201;-73
2020/12/05 12:27:28;;;;;;;11.48;8.90;;;3.20;99.90;;;;;;5042885;28;20629;-74
2020/12/05 12:29:54;;;;;;;11.23;9.20;;;3.20;99.90;;;;;;5044817;28;21116;-73
2020/12/05 12:32:21;;;;;;;13.27;9.05;;;3.20;99.90;;;;;;5045433;28;20237;-72
2020/12/05 12:34:50;;;;;;;10.05;8.75;;;3.20;99.90;;;;;;5041503;28;20205;-73
2020/12/05 12:37:19;;;;;;;11.40;8.82;;;3.10;99.90;;;;;;5033239;28;20226;-73
2020/12/05 12:39:46;;;;;;;12.20;8.82;;;3.20;99.90;;;;;;5036440;28;20297;-73
2020/12/05 12:42:13;;;;;;;11.15;9.60;;;3.10;99.90;;;;;;5035904;28;20312;-73
2020/12/05 12:44:40;;;;;;;13.30;9.13;;;3.10;99.90;;;;;;5034255;28;20221;-73
2020/12/05 12:47:16;;;;;;;10.00;8.05;;;3.10;99.90;;;;;;5036550;28;20207;-73
2020/12/05 12:49:45;;;;;;;10.65;9.15;;;3.10;99.90;;;;;;5039740;28;20898;-73
2020/12/05 12:52:11;;;;;;;12.25;10.00;;;3.10;99.90;;;;;;5040605;28;20229;-73
2020/12/05 12:54:38;;;;;;;11.00;9.25;;;3.20;99.90;;;;;;5038141;28;20680;-73